This is the latest recevied weather packets stored in our database for station/object N5SNT-2. If no packets are shown the sender has not sent any weather packets the latest 1 day(s).
| Time | Temp. | Humidity | Pressure | Rain* | Wind** | Luminosity | Snow |
|---|---|---|---|---|---|---|---|
| 1778099843 | 28.89° C | 73% | 1011 hPa | 0 mm | - | 398 W/m² | - |
| 1778098943 | 29.44° C | 72% | 1011 hPa | 0 mm | - | 859 W/m² | - |
| 1778097443 | 28.33° C | 75% | 1011 hPa | 0 mm | - | 911 W/m² | - |
| 1778096845 | 28.33° C | 74% | 1011 hPa | 0 mm | - | 812 W/m² | - |
| 1778096244 | 27.78° C | 76% | 1011 hPa | 0 mm | - | 647 W/m² | - |
| 1778095946 | 28.33° C | 74% | 1011 hPa | 0 mm | - | 596 W/m² | - |
| 1778095344 | 28.33° C | 77% | 1011 hPa | 0 mm | - | 801 W/m² | - |
| 1778094745 | 27.78° C | 77% | 1012 hPa | 0 mm | - | 617 W/m² | - |
| 1778093543 | 27.22° C | 78% | 1012 hPa | 0 mm | - | 455 W/m² | - |
| 1778092344 | 27.22° C | 77% | 1012 hPa | 0 mm | - | 464 W/m² | - |
| 1778091144 | 27.78° C | 75% | 1012 hPa | 0 mm | - | 807 W/m² | - |
| 1778090244 | 27.78° C | 76% | 1012 hPa | 0 mm | - | 410 W/m² | - |
| 1778089944 | 27.78° C | 78% | 1012 hPa | 0 mm | - | 760 W/m² | - |
| 1778088744 | 26.67° C | 83% | 1012 hPa | 0 mm | - | - | - |
| 1778087543 | 25.56° C | 89% | 1013 hPa | 0 mm | - | 366 W/m² | - |
| 1778086344 | 24.44° C | 93% | 1012 hPa | 0 mm | - | 270 W/m² | - |
| 1778085147 | 23.89° C | 96% | 1013 hPa | 0.51 mm | - | 238 W/m² | - |
| 1778084544 | 24.44° C | 96% | 1013 hPa | 0 mm | - | 134 W/m² | - |
| 1778084243 | 23.89° C | 96% | 1013 hPa | 0 mm | - | 121 W/m² | - |
| 1778083944 | 24.44° C | 95% | 1013 hPa | 0 mm | - | 101 W/m² | - |
| 1778083644 | 24.44° C | 95% | 1013 hPa | 0 mm | - | 101 W/m² | - |
| 1778082744 | 24.44° C | 93% | 1012 hPa | 0 mm | - | 102 W/m² | - |
| 1778082444 | 23.89° C | 93% | 1013 hPa | 0 mm | - | 159 W/m² | - |
| 1778082144 | 24.44° C | 93% | 1012 hPa | 0 mm | - | 149 W/m² | - |
| 1778081846 | 24.44° C | 94% | 1012 hPa | 0 mm | - | 155 W/m² | - |
* Rain latest hour (hover to see other rain measurements)
** Current wind speed in m/s (hover to see current wind gust speed)